createdAt,value
2022-12-05T00:00:15.479Z,20.8
2022-12-05T00:02:15.365Z,21.1
2022-12-05T00:06:15.361Z,21.0
2022-12-05T00:11:53.748Z,21.0
2022-12-05T00:13:53.815Z,21.4
2022-12-05T00:15:53.757Z,21.3
2022-12-05T00:17:53.789Z,21.4
2022-12-05T00:19:56.889Z,20.9
2022-12-05T00:22:23.827Z,21.0
2022-12-05T00:24:23.783Z,21.1
2022-12-05T00:26:23.786Z,21.1
2022-12-05T00:28:23.825Z,21.1
2022-12-05T00:30:23.863Z,21.2
2022-12-05T00:32:23.819Z,21.3
2022-12-05T00:34:23.862Z,21.3
2022-12-05T00:36:23.818Z,21.4
2022-12-05T00:38:23.768Z,21.3
2022-12-05T00:40:23.774Z,21.4
2022-12-05T00:42:23.776Z,21.4
2022-12-05T00:44:23.785Z,21.3
2022-12-05T00:46:24.024Z,21.1
2022-12-05T00:48:23.803Z,21.0
2022-12-05T00:50:23.826Z,21.2
2022-12-05T00:52:23.842Z,21.2
2022-12-05T00:54:23.792Z,21.3
2022-12-05T00:56:23.802Z,21.6
2022-12-05T00:58:23.779Z,21.8
2022-12-05T01:00:23.813Z,21.8
2022-12-05T01:02:23.856Z,21.7
2022-12-05T01:04:23.821Z,21.6
2022-12-05T01:06:23.761Z,21.8
2022-12-05T01:08:23.780Z,21.9
2022-12-05T01:10:23.797Z,21.8
2022-12-05T01:12:23.893Z,21.8
2022-12-05T01:14:23.782Z,21.9
2022-12-05T01:16:23.856Z,22.1
2022-12-05T01:18:23.821Z,21.9
2022-12-05T01:20:23.826Z,22.0
2022-12-05T01:22:23.861Z,21.9
2022-12-05T01:24:23.847Z,22.0
2022-12-05T01:26:23.831Z,21.9
2022-12-05T01:28:23.848Z,22.0
2022-12-05T01:30:23.849Z,21.7
2022-12-05T01:32:23.842Z,21.2
2022-12-05T01:34:23.872Z,21.2
2022-12-05T01:36:23.847Z,21.0
2022-12-05T01:38:23.882Z,21.2
2022-12-05T01:40:23.807Z,21.2
2022-12-05T01:42:26.334Z,21.3
2022-12-05T01:44:23.957Z,21.5
2022-12-05T01:46:23.918Z,21.6
2022-12-05T01:48:23.798Z,21.8
2022-12-05T01:50:23.848Z,21.8
2022-12-05T01:52:23.865Z,22.0
2022-12-05T01:54:23.845Z,21.8
2022-12-05T01:56:23.812Z,21.5
2022-12-05T01:58:23.837Z,21.3
2022-12-05T02:00:23.811Z,21.5
2022-12-05T02:02:23.853Z,21.5
2022-12-05T02:04:23.889Z,21.5
2022-12-05T02:06:23.802Z,21.4
2022-12-05T02:08:24.027Z,21.3
2022-12-05T02:10:23.874Z,20.8
2022-12-05T02:12:23.938Z,20.6
2022-12-05T02:14:23.850Z,20.5
2022-12-05T02:16:53.880Z,20.5
2022-12-05T02:18:54.949Z,20.5
2022-12-05T02:20:53.859Z,20.7
2022-12-05T02:22:53.877Z,20.8
2022-12-05T02:24:53.926Z,21.0
2022-12-05T02:26:53.866Z,21.1
2022-12-05T02:28:53.870Z,20.8
2022-12-05T02:30:53.831Z,21.0
2022-12-05T02:32:53.837Z,21.3
2022-12-05T02:34:53.889Z,21.3
2022-12-05T02:36:53.843Z,21.3
2022-12-05T02:38:53.871Z,21.0
2022-12-05T02:40:53.866Z,20.8
2022-12-05T02:42:53.852Z,20.6
2022-12-05T02:44:53.833Z,20.5
2022-12-05T02:46:53.884Z,20.3
2022-12-05T02:48:53.849Z,20.3
2022-12-05T02:50:53.867Z,20.5
2022-12-05T02:52:53.809Z,20.4
2022-12-05T02:54:53.869Z,20.4
2022-12-05T02:56:53.848Z,20.8
2022-12-05T02:58:53.857Z,21.0
2022-12-05T03:00:53.906Z,21.2
2022-12-05T03:02:53.946Z,21.2
2022-12-05T03:04:53.869Z,21.4
2022-12-05T03:06:53.854Z,21.4
2022-12-05T03:08:53.896Z,21.3
2022-12-05T03:10:53.914Z,21.6
2022-12-05T03:12:53.854Z,21.6
2022-12-05T03:14:53.885Z,21.7
2022-12-05T03:16:53.938Z,21.4
2022-12-05T03:18:53.920Z,21.4
2022-12-05T03:20:53.905Z,21.3
2022-12-05T03:22:53.891Z,21.3
2022-12-05T03:24:53.916Z,21.0
2022-12-05T03:26:53.892Z,21.1
2022-12-05T03:28:53.917Z,21.2
2022-12-05T03:30:53.987Z,21.0
2022-12-05T03:32:53.884Z,20.8
2022-12-05T03:34:53.921Z,20.7
2022-12-05T03:36:53.976Z,20.9
2022-12-05T03:38:53.899Z,21.4
2022-12-05T03:40:53.892Z,21.8
2022-12-05T03:42:53.884Z,21.9
2022-12-05T03:44:53.875Z,22.2
2022-12-05T03:46:53.906Z,22.3
2022-12-05T03:48:53.879Z,22.2
2022-12-05T03:50:53.894Z,22.0
2022-12-05T03:53:18.533Z,22.0
2022-12-05T03:54:53.925Z,22.1
2022-12-05T03:56:53.974Z,21.6
2022-12-05T03:58:53.864Z,21.4
2022-12-05T04:00:53.869Z,21.1
2022-12-05T04:02:53.907Z,21.0
2022-12-05T04:04:53.891Z,20.9
2022-12-05T04:06:53.934Z,20.8
2022-12-05T04:08:53.996Z,20.8
2022-12-05T04:11:23.910Z,20.7
2022-12-05T04:13:23.932Z,20.7
2022-12-05T04:15:23.893Z,20.6
2022-12-05T04:17:23.872Z,20.4
2022-12-05T04:19:23.941Z,20.6
2022-12-05T04:21:23.920Z,20.5
2022-12-05T04:23:23.873Z,20.3
2022-12-05T04:25:23.907Z,20.1
2022-12-05T04:27:24.015Z,20.1
2022-12-05T04:29:23.918Z,19.9
2022-12-05T04:31:23.984Z,20.0
2022-12-05T04:33:23.875Z,20.0
2022-12-05T04:35:23.915Z,19.8
2022-12-05T04:37:23.937Z,19.6
2022-12-05T04:39:23.872Z,19.4
2022-12-05T04:41:23.885Z,19.3
2022-12-05T04:43:23.881Z,19.4
2022-12-05T04:45:23.871Z,19.4
2022-12-05T04:47:23.923Z,19.3
2022-12-05T04:49:23.936Z,19.3
2022-12-05T04:51:23.949Z,19.1
2022-12-05T04:53:23.882Z,19.2
2022-12-05T04:55:23.917Z,19.3
2022-12-05T04:57:23.870Z,19.6
2022-12-05T04:59:23.916Z,19.1
2022-12-05T05:01:23.882Z,19.0
2022-12-05T05:03:23.969Z,18.7
2022-12-05T05:05:23.928Z,19.0
2022-12-05T05:07:23.948Z,19.2
2022-12-05T05:09:23.891Z,19.1
2022-12-05T05:11:23.883Z,19.2
2022-12-05T05:13:24.032Z,19.1
2022-12-05T05:15:23.955Z,19.1
2022-12-05T05:17:23.892Z,19.5
2022-12-05T05:19:23.977Z,19.2
2022-12-05T05:21:24.021Z,19.2
2022-12-05T05:23:23.979Z,19.4
2022-12-05T05:25:23.925Z,19.4
2022-12-05T05:27:23.995Z,19.4
2022-12-05T05:29:24.011Z,19.5
2022-12-05T05:31:23.996Z,19.6
2022-12-05T05:33:23.963Z,19.8
2022-12-05T05:35:23.898Z,20.0
2022-12-05T05:37:24.015Z,20.0
2022-12-05T05:39:23.950Z,19.8
2022-12-05T05:41:23.999Z,19.8
2022-12-05T05:43:24.048Z,19.6
2022-12-05T05:45:24.039Z,19.4
2022-12-05T05:47:23.964Z,19.4
2022-12-05T05:49:23.908Z,19.3
2022-12-05T05:51:23.919Z,19.0
2022-12-05T05:53:24.021Z,18.9
2022-12-05T05:55:24.826Z,18.8
2022-12-05T05:57:23.932Z,18.8
2022-12-05T05:59:24.332Z,19.1
2022-12-05T06:01:24.027Z,19.0
2022-12-05T06:03:24.123Z,19.0
2022-12-05T06:05:53.989Z,18.6
2022-12-05T06:07:53.985Z,18.7
2022-12-05T06:09:53.980Z,18.8
2022-12-05T06:11:53.949Z,18.8
2022-12-05T06:13:53.958Z,18.6
2022-12-05T06:15:54.009Z,18.7
2022-12-05T06:17:53.942Z,18.6
2022-12-05T06:19:53.951Z,18.6
2022-12-05T06:21:54.041Z,18.8
2022-12-05T06:23:53.922Z,18.7
2022-12-05T06:25:53.920Z,18.7
2022-12-05T06:27:53.922Z,18.7
2022-12-05T06:29:53.983Z,18.6
2022-12-05T06:31:54.082Z,18.3
2022-12-05T06:33:53.963Z,18.5
2022-12-05T06:35:53.976Z,18.4
2022-12-05T06:37:54.104Z,18.4
2022-12-05T06:39:53.964Z,18.6
2022-12-05T06:41:53.980Z,18.5
2022-12-05T06:43:56.244Z,18.6
2022-12-05T06:45:54.045Z,18.8
2022-12-05T06:47:53.932Z,19.2
2022-12-05T06:49:53.990Z,19.1
2022-12-05T06:51:54.077Z,19.3
2022-12-05T06:53:53.958Z,19.4
2022-12-05T06:55:53.956Z,19.6
2022-12-05T06:57:53.994Z,19.7
2022-12-05T06:59:54.043Z,19.7
2022-12-05T07:01:54.072Z,19.8
2022-12-05T07:03:54.086Z,20.0
2022-12-05T07:05:54.037Z,20.2
2022-12-05T07:07:54.066Z,20.3
2022-12-05T07:09:53.997Z,20.4
2022-12-05T07:12:04.578Z,20.2
2022-12-05T07:14:10.404Z,20.4
2022-12-05T07:16:04.537Z,20.4
2022-12-05T07:18:04.564Z,20.2
2022-12-05T07:20:04.525Z,20.4
2022-12-05T07:22:04.497Z,20.4
2022-12-05T07:24:04.509Z,20.4
2022-12-05T07:26:04.530Z,20.4
2022-12-05T07:28:04.547Z,20.5
2022-12-05T07:30:04.521Z,20.6
2022-12-05T07:32:04.653Z,20.8
2022-12-05T07:34:04.552Z,20.5
2022-12-05T07:36:04.546Z,20.7
2022-12-05T07:38:04.620Z,20.7
2022-12-05T07:40:04.530Z,20.4
2022-12-05T07:42:04.550Z,20.4
2022-12-05T07:44:04.592Z,20.4
2022-12-05T07:46:04.649Z,20.1
2022-12-05T07:48:04.586Z,19.8
2022-12-05T07:50:04.720Z,19.9
2022-12-05T07:52:04.570Z,19.7
2022-12-05T07:54:04.567Z,19.7
2022-12-05T07:56:04.579Z,19.5
2022-12-05T07:58:04.575Z,19.4
2022-12-05T08:00:04.562Z,19.4
2022-12-05T08:02:04.608Z,19.4
2022-12-05T08:04:04.568Z,19.5
2022-12-05T08:06:04.539Z,19.7
2022-12-05T08:08:04.563Z,19.9
2022-12-05T08:10:04.596Z,19.8
2022-12-05T08:12:04.521Z,20.2
2022-12-05T08:14:04.529Z,20.2
2022-12-05T08:16:04.553Z,20.2
2022-12-05T08:18:04.570Z,20.1
2022-12-05T08:20:04.600Z,20.2
2022-12-05T08:22:04.517Z,20.2
2022-12-05T08:24:04.559Z,20.1
2022-12-05T08:26:04.536Z,20.0
2022-12-05T08:28:04.679Z,20.0
2022-12-05T08:30:04.595Z,19.9
2022-12-05T08:32:04.539Z,19.9
2022-12-05T08:34:04.578Z,20.4
2022-12-05T08:36:04.607Z,20.2
2022-12-05T08:38:04.574Z,20.1
2022-12-05T08:40:34.598Z,20.1
2022-12-05T08:42:34.584Z,20.0
2022-12-05T08:44:34.570Z,19.9
2022-12-05T08:46:34.675Z,20.0
2022-12-05T08:48:34.600Z,20.0
2022-12-05T08:50:34.554Z,20.2
2022-12-05T08:52:34.567Z,20.2
2022-12-05T08:54:34.605Z,20.5
2022-12-05T08:56:34.589Z,20.4
2022-12-05T08:58:34.573Z,20.4
2022-12-05T09:00:34.571Z,20.4
2022-12-05T09:02:34.623Z,20.4
2022-12-05T09:04:34.537Z,20.3
2022-12-05T09:06:34.729Z,20.1
2022-12-05T09:08:34.550Z,19.9
2022-12-05T09:10:34.581Z,19.5
2022-12-05T09:12:34.631Z,19.2
2022-12-05T09:14:34.587Z,19.2
2022-12-05T09:16:37.898Z,19.5
2022-12-05T09:18:34.602Z,19.2
2022-12-05T09:20:34.674Z,19.4
2022-12-05T09:22:34.632Z,19.4
2022-12-05T09:24:34.607Z,19.4
2022-12-05T09:26:34.602Z,19.4
2022-12-05T09:28:34.557Z,19.5
2022-12-05T09:30:34.621Z,19.3
2022-12-05T09:32:34.574Z,19.1
2022-12-05T09:34:34.609Z,19.2
2022-12-05T09:36:34.590Z,19.2
2022-12-05T09:38:34.650Z,19.6
2022-12-05T09:40:34.701Z,19.6
2022-12-05T09:42:34.591Z,19.6
2022-12-05T09:44:34.649Z,19.7
2022-12-05T09:46:35.858Z,19.9
2022-12-05T09:48:34.631Z,20.0
2022-12-05T09:50:34.588Z,20.0
2022-12-05T09:52:34.627Z,19.9
2022-12-05T09:54:34.681Z,19.9
2022-12-05T09:56:34.619Z,20.0
2022-12-05T09:58:34.620Z,19.9
2022-12-05T10:00:34.592Z,19.8
2022-12-05T10:02:34.579Z,19.8
2022-12-05T10:04:34.667Z,19.7
2022-12-05T10:06:34.582Z,19.9
2022-12-05T10:08:34.687Z,19.8
2022-12-05T10:10:34.620Z,20.1
2022-12-05T10:12:34.622Z,20.3
2022-12-05T10:14:34.631Z,20.3
2022-12-05T10:16:34.715Z,20.2
2022-12-05T10:18:34.637Z,20.5
2022-12-05T10:20:34.637Z,20.2
2022-12-05T10:22:34.632Z,20.4
2022-12-05T10:24:34.588Z,20.5
2022-12-05T10:26:34.580Z,20.5
2022-12-05T10:28:34.578Z,20.5
2022-12-05T10:30:34.611Z,20.7
2022-12-05T10:32:34.682Z,20.6
2022-12-05T10:34:34.658Z,20.4
2022-12-05T10:37:04.644Z,20.3
2022-12-05T10:39:09.903Z,20.0
2022-12-05T10:41:04.717Z,20.3
2022-12-05T10:43:04.637Z,20.5
2022-12-05T10:45:04.844Z,20.7
2022-12-05T10:47:04.684Z,20.8
2022-12-05T10:49:04.598Z,20.8
2022-12-05T10:51:04.647Z,20.8
2022-12-05T10:53:04.648Z,21.1
2022-12-05T10:55:04.592Z,21.1
2022-12-05T10:57:04.655Z,21.1
2022-12-05T10:59:04.638Z,21.2
2022-12-05T11:01:04.672Z,21.3
2022-12-05T11:03:04.634Z,21.3
2022-12-05T11:05:04.791Z,21.3
2022-12-05T11:07:04.664Z,21.5
2022-12-05T11:09:05.399Z,21.5
2022-12-05T11:11:04.630Z,21.4
2022-12-05T11:13:04.638Z,21.3
2022-12-05T11:15:04.615Z,21.4
2022-12-05T11:17:04.661Z,21.3
2022-12-05T11:19:04.861Z,21.2
2022-12-05T11:21:04.702Z,21.3
2022-12-05T11:23:04.624Z,21.2
2022-12-05T11:25:04.755Z,21.1
2022-12-05T11:27:04.631Z,21.3
2022-12-05T11:29:04.650Z,21.1
2022-12-05T11:31:04.741Z,21.3
2022-12-05T11:33:04.693Z,21.3
2022-12-05T11:35:04.694Z,21.3
2022-12-05T11:37:04.701Z,21.4
2022-12-05T11:39:04.612Z,21.5
2022-12-05T11:41:04.618Z,21.3
2022-12-05T11:43:04.672Z,21.3
2022-12-05T11:45:04.664Z,21.0
2022-12-05T11:47:04.732Z,20.8
2022-12-05T11:49:04.658Z,20.6
2022-12-05T11:51:04.702Z,20.8
2022-12-05T11:53:04.638Z,20.4
2022-12-05T11:55:06.047Z,20.4
2022-12-05T11:57:04.672Z,20.7
2022-12-05T11:59:04.703Z,20.5
2022-12-05T12:01:04.697Z,20.4
2022-12-05T12:03:04.734Z,20.6
2022-12-05T12:05:04.678Z,20.5
2022-12-05T12:07:04.643Z,20.3
2022-12-05T12:09:04.639Z,20.5
2022-12-05T12:11:04.862Z,20.5
2022-12-05T12:13:04.664Z,20.6
2022-12-05T12:15:04.645Z,20.4
2022-12-05T12:17:04.807Z,20.5
2022-12-05T12:19:04.706Z,20.6
2022-12-05T12:21:04.692Z,20.4
2022-12-05T12:23:04.665Z,20.5
2022-12-05T12:25:04.681Z,20.6
2022-12-05T12:27:04.665Z,20.1
2022-12-05T12:29:04.703Z,20.4
2022-12-05T12:31:04.686Z,20.0
2022-12-05T12:33:04.653Z,20.1
2022-12-05T12:35:04.702Z,20.1
2022-12-05T12:37:34.733Z,20.0
2022-12-05T12:39:34.660Z,20.0
2022-12-05T12:41:34.716Z,19.7
2022-12-05T12:43:52.701Z,19.7
2022-12-05T12:45:34.765Z,19.8
2022-12-05T12:47:34.711Z,19.9
2022-12-05T12:49:34.673Z,20.2
2022-12-05T12:51:34.778Z,20.3
2022-12-05T12:53:34.759Z,20.3
2022-12-05T12:55:34.889Z,20.1
2022-12-05T12:57:34.792Z,20.3
2022-12-05T12:59:34.711Z,20.2
2022-12-05T13:01:34.760Z,20.1
2022-12-05T13:03:34.891Z,20.3
2022-12-05T13:05:34.783Z,20.3
2022-12-05T13:07:34.719Z,20.3
2022-12-05T13:09:34.705Z,20.3
2022-12-05T13:11:34.706Z,20.2
2022-12-05T13:13:34.683Z,20.1
2022-12-05T13:15:34.740Z,20.3
2022-12-05T13:17:34.712Z,20.3
2022-12-05T13:19:34.777Z,20.6
2022-12-05T13:21:34.794Z,20.8
2022-12-05T13:23:34.791Z,20.6
2022-12-05T13:25:34.865Z,20.8
2022-12-05T13:27:34.809Z,21.1
2022-12-05T13:29:34.865Z,21.1
2022-12-05T13:31:34.882Z,21.1
2022-12-05T13:33:34.764Z,21.3
2022-12-05T13:35:34.788Z,21.3
2022-12-05T13:37:34.797Z,21.2
2022-12-05T13:39:34.699Z,21.3
2022-12-05T13:41:34.834Z,21.2
2022-12-05T13:43:34.858Z,21.3
2022-12-05T13:45:34.881Z,21.1
2022-12-05T13:47:34.798Z,21.1
2022-12-05T13:49:34.841Z,20.6
2022-12-05T13:51:34.803Z,20.8
2022-12-05T13:53:34.800Z,20.8
2022-12-05T13:55:36.503Z,20.8
2022-12-05T13:57:34.763Z,20.9
2022-12-05T13:59:34.878Z,20.6
2022-12-05T14:01:37.985Z,20.4
2022-12-05T14:03:34.944Z,20.1
2022-12-05T14:05:34.800Z,20.3
2022-12-05T14:07:34.922Z,20.2
2022-12-05T14:09:34.816Z,20.1
2022-12-05T14:11:34.854Z,20.4
2022-12-05T14:13:34.982Z,20.4
2022-12-05T14:15:35.093Z,20.2
2022-12-05T14:17:34.839Z,20.1
2022-12-05T14:19:34.949Z,20.1
2022-12-05T14:21:34.856Z,20.1
2022-12-05T14:23:34.896Z,20.1
2022-12-05T14:25:35.929Z,19.9
2022-12-05T14:29:34.970Z,19.7
2022-12-05T14:31:36.195Z,19.5
2022-12-05T14:35:50.573Z,19.6
2022-12-05T14:37:50.633Z,19.8
2022-12-05T14:39:50.608Z,19.6
2022-12-05T14:41:50.670Z,19.5
2022-12-05T14:43:50.555Z,19.4
2022-12-05T14:45:50.593Z,19.7
2022-12-05T14:47:50.701Z,19.7
2022-12-05T14:49:50.631Z,19.8
2022-12-05T14:51:50.566Z,19.7
2022-12-05T14:53:50.600Z,19.7
2022-12-05T14:55:50.644Z,19.7
2022-12-05T14:57:50.596Z,19.7
2022-12-05T14:59:50.600Z,20.0
2022-12-05T15:01:50.739Z,20.5
2022-12-05T15:03:50.665Z,20.5
2022-12-05T15:05:50.647Z,20.7
2022-12-05T15:07:50.655Z,20.7
2022-12-05T15:09:50.686Z,20.8
2022-12-05T15:11:50.564Z,20.6
2022-12-05T15:13:50.661Z,20.3
2022-12-05T15:15:50.640Z,20.2
2022-12-05T15:17:50.533Z,20.1
2022-12-05T15:19:50.603Z,20.1
2022-12-05T15:21:50.645Z,20.1
2022-12-05T15:23:50.619Z,20.1
2022-12-05T15:25:54.580Z,20.1
2022-12-05T15:27:50.846Z,20.0
2022-12-05T15:29:50.830Z,20.1
2022-12-05T15:31:51.011Z,20.4
2022-12-05T15:33:50.739Z,20.3
2022-12-05T15:35:50.912Z,20.0
2022-12-05T15:37:51.233Z,19.8
2022-12-05T15:39:50.798Z,19.9
2022-12-05T15:42:24.760Z,20.1
2022-12-05T15:44:26.732Z,20.2
2022-12-05T15:46:20.912Z,20.4
2022-12-05T15:48:23.170Z,20.3
2022-12-05T15:50:20.799Z,20.5
2022-12-05T15:52:20.926Z,20.5
2022-12-05T15:54:26.166Z,20.5
2022-12-05T15:56:20.935Z,20.3
2022-12-05T15:58:20.885Z,20.5
2022-12-05T16:00:20.862Z,20.4
2022-12-05T16:02:20.993Z,20.4
2022-12-05T16:04:24.899Z,20.0
2022-12-05T16:06:20.834Z,19.8
2022-12-05T16:08:20.886Z,19.5
2022-12-05T16:10:23.426Z,19.6
2022-12-05T16:12:20.751Z,19.7
2022-12-05T16:14:50.988Z,20.0
2022-12-05T16:16:20.792Z,20.2
2022-12-05T16:18:20.833Z,20.2
2022-12-05T16:20:22.308Z,20.2
2022-12-05T16:22:22.085Z,20.3
2022-12-05T16:24:20.828Z,20.5
2022-12-05T16:26:20.919Z,20.5
2022-12-05T16:28:21.029Z,20.5
2022-12-05T16:30:20.816Z,20.6
2022-12-05T16:32:23.493Z,20.7
2022-12-05T16:34:20.813Z,20.8
2022-12-05T16:36:20.934Z,20.8
2022-12-05T16:38:20.888Z,21.2
2022-12-05T16:40:20.875Z,21.2
2022-12-05T16:42:20.947Z,21.4
2022-12-05T16:44:23.471Z,21.2
2022-12-05T16:46:20.935Z,21.1
2022-12-05T16:48:20.657Z,21.2
2022-12-05T16:50:20.661Z,21.0
2022-12-05T16:52:20.710Z,21.1
2022-12-05T16:54:20.688Z,21.3
2022-12-05T16:56:20.667Z,21.4
2022-12-05T16:58:20.619Z,21.2
2022-12-05T17:00:20.716Z,21.3
2022-12-05T17:02:20.724Z,21.1
2022-12-05T17:04:20.724Z,21.3
2022-12-05T17:06:20.655Z,21.5
2022-12-05T17:08:20.689Z,22.0
2022-12-05T17:10:20.681Z,22.1
2022-12-05T17:12:20.711Z,22.5
2022-12-05T17:14:20.739Z,22.2
2022-12-05T17:16:20.813Z,22.1
2022-12-05T17:18:20.784Z,21.7
2022-12-05T17:20:20.665Z,21.8
2022-12-05T17:22:20.643Z,21.7
2022-12-05T17:24:20.727Z,21.5
2022-12-05T17:26:20.751Z,21.4
2022-12-05T17:28:20.739Z,21.5
2022-12-05T17:30:20.770Z,21.4
2022-12-05T17:32:20.623Z,21.4
2022-12-05T17:34:20.613Z,21.4
2022-12-05T17:36:20.660Z,21.4
2022-12-05T17:38:20.685Z,21.1
2022-12-05T17:40:50.746Z,21.1
2022-12-05T17:42:50.598Z,21.1
2022-12-05T17:44:50.622Z,21.1
2022-12-05T17:46:50.888Z,21.0
2022-12-05T17:48:50.662Z,21.1
2022-12-05T17:50:50.625Z,21.1
2022-12-05T17:52:50.686Z,20.8
2022-12-05T17:54:50.678Z,20.6
2022-12-05T17:56:50.720Z,20.6
2022-12-05T17:58:50.666Z,20.5
2022-12-05T18:00:50.669Z,20.3
2022-12-05T18:02:50.733Z,20.2
2022-12-05T18:04:50.623Z,20.2
2022-12-05T18:06:50.593Z,20.3
2022-12-05T18:08:50.734Z,20.1
2022-12-05T18:10:50.745Z,19.7
2022-12-05T18:12:50.628Z,19.6
2022-12-05T18:14:50.710Z,19.7
2022-12-05T18:16:50.876Z,19.5
2022-12-05T18:18:50.660Z,19.6
2022-12-05T18:20:50.632Z,19.5
2022-12-05T18:22:50.745Z,20.0
2022-12-05T18:24:50.713Z,20.3
2022-12-05T18:26:50.630Z,20.1
2022-12-05T18:28:50.654Z,20.1
2022-12-05T18:30:50.705Z,20.3
2022-12-05T18:32:50.902Z,20.3
2022-12-05T18:34:50.668Z,20.6
2022-12-05T18:36:50.786Z,20.9
2022-12-05T18:38:50.727Z,20.7
2022-12-05T18:40:50.768Z,20.8
2022-12-05T18:42:50.774Z,20.5
2022-12-05T18:44:50.645Z,20.0
2022-12-05T18:46:50.694Z,20.3
2022-12-05T18:48:50.657Z,20.1
2022-12-05T18:50:50.749Z,20.0
2022-12-05T18:52:50.700Z,20.0
2022-12-05T18:55:03.049Z,19.9
2022-12-05T18:56:51.124Z,19.8
2022-12-05T18:58:50.734Z,19.9
2022-12-05T19:00:50.924Z,19.9
2022-12-05T19:02:50.817Z,20.4
2022-12-05T19:04:50.695Z,20.5
2022-12-05T19:06:50.809Z,20.3
2022-12-05T19:08:50.747Z,20.0
2022-12-05T19:10:50.731Z,20.4
2022-12-05T19:12:50.768Z,20.3
2022-12-05T19:14:50.798Z,20.5
2022-12-05T19:16:56.303Z,20.8
2022-12-05T19:18:50.691Z,20.9
2022-12-05T19:20:50.795Z,21.0
2022-12-05T19:22:50.739Z,20.6
2022-12-05T19:24:50.740Z,20.4
2022-12-05T19:26:50.751Z,20.8
2022-12-05T19:28:50.784Z,21.0
2022-12-05T19:30:50.824Z,21.0
2022-12-05T19:32:50.701Z,20.9
2022-12-05T19:34:50.671Z,20.6
2022-12-05T19:36:50.706Z,20.4
2022-12-05T19:39:20.816Z,20.5
2022-12-05T19:41:20.773Z,20.6
2022-12-05T19:43:20.748Z,20.9
2022-12-05T19:45:20.784Z,21.0
2022-12-05T19:47:20.804Z,21.0
2022-12-05T19:49:20.861Z,21.2
2022-12-05T19:51:20.754Z,21.4
2022-12-05T19:53:20.804Z,21.3
2022-12-05T19:55:20.790Z,21.2
2022-12-05T19:57:20.797Z,21.5
2022-12-05T19:59:20.768Z,21.6
2022-12-05T20:01:20.905Z,21.5
2022-12-05T20:03:20.817Z,21.4
2022-12-05T20:05:20.677Z,21.2
2022-12-05T20:07:20.721Z,21.5
2022-12-05T20:09:20.822Z,21.5
2022-12-05T20:11:20.771Z,21.5
2022-12-05T20:13:45.243Z,21.2
2022-12-05T20:15:20.685Z,21.1
2022-12-05T20:17:20.737Z,21.1
2022-12-05T20:19:20.749Z,21.3
2022-12-05T20:21:20.689Z,21.3
2022-12-05T20:23:20.661Z,21.1
2022-12-05T20:25:20.721Z,21.2
2022-12-05T20:27:20.783Z,21.2
2022-12-05T20:29:20.737Z,21.1
2022-12-05T20:31:20.737Z,21.0
2022-12-05T20:33:20.719Z,21.0
2022-12-05T20:35:24.131Z,21.4
2022-12-05T20:37:20.753Z,21.6
2022-12-05T20:39:20.745Z,21.5
2022-12-05T20:41:20.807Z,21.9
2022-12-05T20:43:20.802Z,21.8
2022-12-05T20:45:20.849Z,21.9
2022-12-05T20:47:20.752Z,21.8
2022-12-05T20:49:20.791Z,21.9
2022-12-05T20:51:20.816Z,21.9
2022-12-05T20:53:20.787Z,21.9
2022-12-05T20:55:20.724Z,21.9
2022-12-05T20:57:20.740Z,21.8
2022-12-05T20:59:20.706Z,21.8
2022-12-05T21:01:20.817Z,21.7
2022-12-05T21:03:20.737Z,21.5
2022-12-05T21:05:20.856Z,21.7
2022-12-05T21:07:20.868Z,21.5
2022-12-05T21:09:20.848Z,21.6
2022-12-05T21:11:20.764Z,21.6
2022-12-05T21:13:20.737Z,21.7
2022-12-05T21:15:20.891Z,21.8
2022-12-05T21:17:20.697Z,21.7
2022-12-05T21:19:20.714Z,21.6
2022-12-05T21:21:20.763Z,21.6
2022-12-05T21:23:20.821Z,21.6
2022-12-05T21:25:20.842Z,21.6
2022-12-05T21:27:20.743Z,21.6
2022-12-05T21:29:20.716Z,21.3
2022-12-05T21:33:29.371Z,21.4
2022-12-05T21:35:29.313Z,21.0
2022-12-05T21:37:29.339Z,20.9
2022-12-05T21:39:29.282Z,21.0
2022-12-05T21:41:29.292Z,20.6
2022-12-05T21:43:29.525Z,20.7
2022-12-05T21:45:29.338Z,20.5
2022-12-05T21:47:29.307Z,20.5
2022-12-05T21:49:29.352Z,20.4
2022-12-05T21:51:29.423Z,20.5
2022-12-05T21:53:29.376Z,20.6
2022-12-05T21:55:29.402Z,20.9
2022-12-05T21:57:29.405Z,20.8
2022-12-05T21:59:29.301Z,20.6
2022-12-05T22:01:29.338Z,20.6
2022-12-05T22:03:29.351Z,20.7
2022-12-05T22:05:29.314Z,20.7
2022-12-05T22:07:29.466Z,20.9
2022-12-05T22:09:29.401Z,20.8
2022-12-05T22:11:59.361Z,20.8
2022-12-05T22:13:59.336Z,20.9
2022-12-05T22:15:59.462Z,20.9
2022-12-05T22:17:59.313Z,21.1
2022-12-05T22:19:59.551Z,21.1
2022-12-05T22:21:59.317Z,20.9
2022-12-05T22:23:59.342Z,20.9
2022-12-05T22:25:59.460Z,21.1
2022-12-05T22:27:59.445Z,21.1
2022-12-05T22:29:59.482Z,21.2
2022-12-05T22:31:59.333Z,21.0
2022-12-05T22:33:59.324Z,20.7
2022-12-05T22:35:59.357Z,21.0
2022-12-05T22:37:59.365Z,21.1
2022-12-05T22:39:59.591Z,21.1
2022-12-05T22:41:59.329Z,21.1
2022-12-05T22:43:59.384Z,20.8
2022-12-05T22:45:59.362Z,20.6
2022-12-05T22:47:59.396Z,20.6
2022-12-05T22:49:59.638Z,20.6
2022-12-05T22:51:59.426Z,20.5
2022-12-05T22:53:59.377Z,20.2
2022-12-05T22:55:59.443Z,20.4
2022-12-05T22:57:59.403Z,20.5
2022-12-05T22:59:59.570Z,20.5
2022-12-05T23:01:59.354Z,20.4
2022-12-05T23:03:59.454Z,20.6
2022-12-05T23:05:59.428Z,20.5
2022-12-05T23:07:59.500Z,20.4
2022-12-05T23:09:59.579Z,20.6
2022-12-05T23:11:59.340Z,20.5
2022-12-05T23:14:01.977Z,20.3
2022-12-05T23:15:59.407Z,20.1
2022-12-05T23:17:59.334Z,19.9
2022-12-05T23:19:59.631Z,20.0
2022-12-05T23:21:59.338Z,20.3
2022-12-05T23:23:59.360Z,20.4
2022-12-05T23:25:59.394Z,20.3
2022-12-05T23:27:59.350Z,20.1
2022-12-05T23:29:59.485Z,20.0
2022-12-05T23:31:59.400Z,20.4
2022-12-05T23:34:02.863Z,20.4
2022-12-05T23:35:59.375Z,20.2
2022-12-05T23:37:59.458Z,20.2
2022-12-05T23:39:59.614Z,20.4
2022-12-05T23:41:59.383Z,20.3
2022-12-05T23:43:59.390Z,20.5
2022-12-05T23:45:59.398Z,20.9
2022-12-05T23:48:03.094Z,21.0
2022-12-05T23:49:59.664Z,21.0
2022-12-05T23:51:59.437Z,21.1
2022-12-05T23:53:59.406Z,21.3
2022-12-05T23:55:59.406Z,21.4
2022-12-05T23:57:59.345Z,21.0
2022-12-05T23:59:59.555Z,21.5
